Uricky, Kazakhstan
Current Conditions -  °F | °C
As of 2:00 PM on Monday 20 Oct 2014 (Local Time) from UAUU Reporting Station
Overcast Overcast  
Wind Chill: 25°   Ceiling: 1700
Heat Index: 34°   Visibility: 6mi
Dew Point: 27°   Wind: 11mph
Humidity: 75%   Direction: 290°WNW
Pressure: 29.47"   Gusts: NA
Location:  53.32°N, 65.55°E
Report Text: UAUU 200800Z 29005MPS 9999 OVC017CB 01/M03 Q0998 R33/150060NOSIG RMK QFE733/0978
Loading
Personal Weather Stations






























Interactive Weather Map
Tropical Storm Tracking
New forecast layout! Learn more

10-Day Weather Forecast

Advertisements
Track Severe Weather on mobile